createdAt,value
2023-02-06T00:00:01.766Z,0.19
2023-02-06T00:02:36.334Z,0.18
2023-02-06T00:05:09.206Z,0.19
2023-02-06T00:07:42.592Z,0.21
2023-02-06T00:10:15.323Z,0.18
2023-02-06T00:12:48.042Z,0.16
2023-02-06T00:15:20.676Z,0.13
2023-02-06T00:17:53.287Z,0.10
2023-02-06T00:20:25.660Z,0.12
2023-02-06T00:22:58.380Z,0.13
2023-02-06T00:25:30.755Z,0.12
2023-02-06T00:28:03.385Z,0.12
2023-02-06T00:30:36.638Z,0.16
2023-02-06T00:33:09.848Z,0.17
2023-02-06T00:35:43.383Z,0.18
2023-02-06T00:38:26.510Z,0.21
2023-02-06T00:40:58.986Z,0.19
2023-02-06T00:43:31.667Z,0.18
2023-02-06T00:46:04.350Z,0.18
2023-02-06T00:48:37.046Z,0.16
2023-02-06T00:51:09.724Z,0.10
2023-02-06T00:53:42.226Z,0.07
2023-02-06T00:56:15.487Z,0.05
2023-02-06T00:58:48.916Z,0.06
2023-02-06T01:01:22.238Z,0.07
2023-02-06T01:03:55.371Z,0.10
2023-02-06T01:06:28.115Z,0.10
2023-02-06T01:09:01.442Z,0.09
2023-02-06T01:11:34.090Z,0.08
2023-02-06T01:14:07.052Z,0.12
2023-02-06T01:16:40.672Z,0.11
2023-02-06T01:19:13.650Z,0.11
2023-02-06T01:21:46.234Z,0.13
2023-02-06T01:24:19.700Z,0.12
2023-02-06T01:26:52.466Z,0.09
2023-02-06T01:29:24.786Z,0.06
2023-02-06T01:31:59.726Z,0.07
2023-02-06T01:34:33.111Z,0.05
2023-02-06T01:37:06.386Z,0.06
2023-02-06T01:39:39.282Z,0.04
2023-02-06T01:42:14.228Z,0.05
2023-02-06T01:44:46.744Z,0.05
2023-02-06T01:47:19.951Z,0.04
2023-02-06T01:49:52.571Z,0.05
2023-02-06T01:52:27.063Z,0.07
2023-02-06T01:55:02.378Z,0.04
2023-02-06T01:57:36.752Z,0.07
2023-02-06T02:00:10.767Z,0.08
2023-02-06T02:02:49.545Z,0.07
2023-02-06T02:05:22.011Z,0.08
2023-02-06T02:08:15.346Z,0.11
2023-02-06T02:11:00.888Z,0.08
2023-02-06T02:13:34.449Z,0.08
2023-02-06T02:16:33.064Z,0.06
2023-02-06T02:19:24.775Z,0.05
2023-02-06T02:22:27.432Z,0.05
2023-02-06T02:25:22.742Z,0.02
2023-02-06T02:28:27.020Z,0.01
2023-02-06T02:31:37.631Z,0.03
2023-02-06T02:34:35.531Z,0.04
2023-02-06T02:37:47.418Z,0.03
2023-02-06T02:40:50.532Z,0.04
2023-02-06T02:43:40.843Z,0.07
2023-02-06T02:46:27.141Z,0.06
2023-02-06T02:49:07.084Z,0.05
2023-02-06T02:51:40.588Z,0.07
2023-02-06T02:54:12.969Z,0.06
2023-02-06T02:56:45.583Z,0.07
2023-02-06T02:59:40.569Z,0.11
2023-02-06T03:02:29.011Z,0.15
2023-02-06T03:05:07.387Z,0.14
2023-02-06T03:08:13.965Z,0.12
2023-02-06T03:11:16.197Z,0.09
2023-02-06T03:13:53.875Z,0.05
2023-02-06T03:16:33.030Z,0.03
2023-02-06T03:19:16.083Z,0.06
2023-02-06T03:21:48.800Z,0.09
2023-02-06T03:24:25.626Z,0.11
2023-02-06T03:27:04.363Z,0.15
2023-02-06T03:29:37.111Z,0.22
2023-02-06T03:32:19.721Z,0.18
2023-02-06T03:35:08.813Z,0.17
2023-02-06T03:37:41.430Z,0.12
2023-02-06T03:40:14.953Z,0.09
2023-02-06T03:42:52.620Z,0.04
2023-02-06T03:45:31.937Z,0.08
2023-02-06T03:48:07.898Z,0.11
2023-02-06T03:50:43.018Z,0.12
2023-02-06T03:53:15.633Z,0.11
2023-02-06T03:55:48.410Z,0.10
2023-02-06T03:58:23.779Z,0.05
2023-02-06T04:00:55.417Z,0.06
2023-02-06T04:03:27.906Z,0.09
2023-02-06T04:06:00.731Z,0.11
2023-02-06T04:08:34.740Z,0.09
2023-02-06T04:11:07.346Z,0.06
2023-02-06T04:13:41.190Z,0.00
2023-02-06T04:16:13.849Z,-0.04
2023-02-06T04:18:46.968Z,-0.06
2023-02-06T04:21:20.145Z,-0.06
2023-02-06T04:23:52.682Z,0.01
2023-02-06T04:26:25.950Z,0.01
2023-02-06T04:29:12.353Z,0.06
2023-02-06T04:31:45.396Z,0.04
2023-02-06T04:34:18.366Z,0.08
2023-02-06T04:36:50.866Z,0.10
2023-02-06T04:39:23.439Z,0.08
2023-02-06T04:41:56.648Z,0.07
2023-02-06T04:44:31.226Z,0.03
2023-02-06T04:47:04.275Z,0.00
2023-02-06T04:49:37.084Z,0.01
2023-02-06T04:52:09.589Z,0.04
2023-02-06T04:54:42.622Z,0.06
2023-02-06T04:57:15.266Z,0.04
2023-02-06T04:59:48.415Z,0.07
2023-02-06T05:02:20.928Z,0.06
2023-02-06T05:04:53.289Z,0.01
2023-02-06T05:07:26.047Z,0.00
2023-02-06T05:09:58.461Z,0.01
2023-02-06T05:12:30.911Z,0.03
2023-02-06T05:15:03.553Z,-0.02
2023-02-06T05:17:37.730Z,-0.03
2023-02-06T05:20:10.794Z,-0.08
2023-02-06T05:22:43.799Z,-0.10
2023-02-06T05:25:16.265Z,-0.13
2023-02-06T05:27:49.299Z,-0.13
2023-02-06T05:30:22.554Z,-0.13
2023-02-06T05:32:55.640Z,-0.17
2023-02-06T05:35:28.445Z,-0.18
2023-02-06T05:38:01.535Z,-0.20
2023-02-06T05:40:34.783Z,-0.24
2023-02-06T05:43:07.697Z,-0.28
2023-02-06T05:45:40.762Z,-0.28
2023-02-06T05:48:14.589Z,-0.31
2023-02-06T05:50:51.890Z,-0.32
2023-02-06T05:53:24.898Z,-0.30
2023-02-06T05:56:19.067Z,-0.25
2023-02-06T05:58:51.951Z,-0.23
2023-02-06T06:01:26.098Z,-0.21
2023-02-06T06:03:58.958Z,-0.22
2023-02-06T06:06:31.682Z,-0.19
2023-02-06T06:09:04.568Z,-0.18
2023-02-06T06:11:37.607Z,-0.13
2023-02-06T06:14:11.712Z,-0.09
2023-02-06T06:16:44.352Z,-0.08
2023-02-06T06:19:16.974Z,-0.05
2023-02-06T06:21:49.776Z,-0.04
2023-02-06T06:24:22.871Z,-0.03
2023-02-06T06:26:59.100Z,-0.01
2023-02-06T06:29:33.067Z,0.00
2023-02-06T06:32:07.017Z,0.05
2023-02-06T06:34:40.268Z,0.07
2023-02-06T06:37:12.953Z,0.20
2023-02-06T06:39:45.728Z,0.21
2023-02-06T06:42:18.321Z,0.20
2023-02-06T06:44:51.053Z,0.22
2023-02-06T06:47:23.469Z,0.27
2023-02-06T06:49:57.953Z,0.26
2023-02-06T06:52:30.532Z,0.25
2023-02-06T06:55:03.457Z,0.25
2023-02-06T06:57:36.452Z,0.28
2023-02-06T07:00:10.913Z,0.29
2023-02-06T07:02:59.613Z,0.32
2023-02-06T07:05:32.016Z,0.30
2023-02-06T07:08:05.698Z,0.34
2023-02-06T07:10:38.971Z,0.35
2023-02-06T07:13:11.403Z,0.33
2023-02-06T07:15:44.940Z,0.31
2023-02-06T07:18:17.622Z,0.34
2023-02-06T07:20:51.579Z,0.34
2023-02-06T07:23:25.036Z,0.38
2023-02-06T07:28:42.446Z,0.43
2023-02-06T07:31:14.938Z,0.49
2023-02-06T07:33:47.490Z,0.53
2023-02-06T07:36:20.055Z,0.60
2023-02-06T07:38:52.818Z,0.60
2023-02-06T07:41:25.748Z,0.65
2023-02-06T07:43:58.449Z,0.66
2023-02-06T07:46:31.176Z,0.66
2023-02-06T07:49:03.751Z,0.70
2023-02-06T07:51:36.957Z,0.69
2023-02-06T07:54:09.604Z,0.70
2023-02-06T07:56:42.166Z,0.72
2023-02-06T07:59:15.075Z,0.79
2023-02-06T08:01:47.702Z,0.83
2023-02-06T08:04:20.688Z,0.81
2023-02-06T08:06:53.465Z,0.83
2023-02-06T08:09:25.992Z,0.85
2023-02-06T08:11:58.470Z,0.90
2023-02-06T08:14:31.668Z,0.95
2023-02-06T08:17:04.653Z,0.97
2023-02-06T08:19:37.935Z,0.94
2023-02-06T08:22:10.391Z,1.00
2023-02-06T08:24:43.012Z,1.07
2023-02-06T08:27:15.511Z,1.08
2023-02-06T08:29:48.209Z,1.06
2023-02-06T08:32:20.940Z,1.05
2023-02-06T08:34:53.825Z,1.05
2023-02-06T08:37:26.393Z,1.05
2023-02-06T08:39:59.274Z,1.11
2023-02-06T08:42:31.911Z,1.20
2023-02-06T08:45:04.542Z,1.23
2023-02-06T08:47:37.715Z,1.24
2023-02-06T08:50:10.519Z,1.27
2023-02-06T08:52:43.113Z,1.35
2023-02-06T08:55:15.828Z,1.43
2023-02-06T08:57:48.419Z,1.48
2023-02-06T09:00:21.939Z,1.56
2023-02-06T09:02:56.240Z,1.63
2023-02-06T09:05:28.906Z,1.66
2023-02-06T09:08:01.928Z,1.66
2023-02-06T09:10:35.123Z,1.64
2023-02-06T09:13:07.802Z,1.57
2023-02-06T09:15:41.819Z,1.54
2023-02-06T09:18:14.434Z,1.52
2023-02-06T09:20:48.601Z,1.47
2023-02-06T09:23:21.274Z,1.41
2023-02-06T09:25:53.724Z,1.30
2023-02-06T09:28:26.387Z,1.22
2023-02-06T09:30:58.962Z,1.17
2023-02-06T09:33:31.564Z,1.16
2023-02-06T09:36:17.103Z,1.13
2023-02-06T09:39:11.445Z,1.11
2023-02-06T09:41:47.715Z,1.05
2023-02-06T09:44:33.427Z,1.00
2023-02-06T09:47:17.145Z,0.97
2023-02-06T09:50:08.744Z,0.95
2023-02-06T09:53:12.183Z,0.93
2023-02-06T09:55:51.525Z,0.90
2023-02-06T10:01:49.206Z,0.81
2023-02-06T10:04:57.220Z,0.80
2023-02-06T10:07:49.381Z,0.75
2023-02-06T10:10:38.497Z,0.80
2023-02-06T10:13:21.813Z,0.81
2023-02-06T10:15:59.357Z,0.85
2023-02-06T10:18:48.919Z,0.87
2023-02-06T10:21:39.091Z,0.86
2023-02-06T10:24:47.484Z,0.90
2023-02-06T10:27:20.010Z,1.00
2023-02-06T10:29:52.500Z,1.14
2023-02-06T10:32:43.033Z,1.23
2023-02-06T10:35:26.255Z,1.29
2023-02-06T10:38:24.258Z,1.29
2023-02-06T10:41:02.006Z,1.32
2023-02-06T10:43:43.649Z,1.40
2023-02-06T10:46:24.209Z,1.50
2023-02-06T10:49:19.553Z,1.55
2023-02-06T10:52:04.427Z,1.54
2023-02-06T10:54:38.746Z,1.50
2023-02-06T10:57:25.264Z,1.50
2023-02-06T11:00:03.594Z,1.51
2023-02-06T11:02:44.329Z,1.59
2023-02-06T11:05:24.640Z,1.74
2023-02-06T11:08:04.429Z,1.84
2023-02-06T11:10:37.571Z,1.90
2023-02-06T11:13:29.286Z,1.96
2023-02-06T11:16:08.509Z,2.16
2023-02-06T11:18:45.017Z,2.34
2023-02-06T11:21:19.645Z,2.41
2023-02-06T11:23:55.328Z,2.37
2023-02-06T11:26:27.647Z,2.29
2023-02-06T11:29:17.274Z,2.24
2023-02-06T11:32:08.350Z,2.18
2023-02-06T11:35:18.875Z,2.15
2023-02-06T11:37:55.649Z,2.17
2023-02-06T11:40:29.426Z,2.13
2023-02-06T11:43:24.460Z,2.15
2023-02-06T11:46:32.643Z,2.18
2023-02-06T11:49:09.705Z,2.29
2023-02-06T11:52:03.811Z,2.30
2023-02-06T11:54:36.929Z,2.32
2023-02-06T11:57:22.141Z,2.46
2023-02-06T11:59:58.138Z,2.60
2023-02-06T12:02:39.324Z,2.75
2023-02-06T12:05:17.463Z,2.76
2023-02-06T12:08:10.017Z,2.67
2023-02-06T12:10:46.880Z,2.49
2023-02-06T12:13:27.358Z,2.30
2023-02-06T12:16:02.291Z,2.21
2023-02-06T12:18:44.051Z,2.12
2023-02-06T12:21:27.193Z,2.00
2023-02-06T12:24:04.860Z,1.88
2023-02-06T12:26:38.725Z,1.76
2023-02-06T12:29:23.206Z,1.57
2023-02-06T12:32:19.480Z,1.45
2023-02-06T12:35:03.495Z,1.38
2023-02-06T12:37:47.028Z,1.38
2023-02-06T12:40:39.354Z,1.37
2023-02-06T12:43:16.903Z,1.36
2023-02-06T12:46:09.248Z,1.36
2023-02-06T12:48:55.276Z,1.35
2023-02-06T12:51:45.165Z,1.33
2023-02-06T12:54:22.741Z,1.24
2023-02-06T12:57:17.267Z,1.24
2023-02-06T13:00:04.055Z,1.34
2023-02-06T13:02:59.600Z,1.28
2023-02-06T13:05:37.645Z,1.20
2023-02-06T13:08:27.195Z,1.01
2023-02-06T13:11:06.023Z,0.86
2023-02-06T13:16:23.674Z,0.71
2023-02-06T13:18:56.257Z,0.63
2023-02-06T13:21:32.548Z,0.64
2023-02-06T13:24:26.445Z,0.64
2023-02-06T13:27:05.320Z,0.68
2023-02-06T13:29:51.726Z,0.74
2023-02-06T13:32:39.330Z,0.74
2023-02-06T13:35:26.100Z,0.73
2023-02-06T13:38:28.567Z,0.72
2023-02-06T13:41:18.065Z,0.76
2023-02-06T13:44:00.818Z,0.75
2023-02-06T13:47:26.585Z,0.68
2023-02-06T13:50:15.691Z,0.67
2023-02-06T13:53:17.556Z,0.65
2023-02-06T13:56:12.575Z,0.61
2023-02-06T13:58:53.680Z,0.57
2023-02-06T14:01:31.052Z,0.53
2023-02-06T14:04:06.054Z,0.49
2023-02-06T14:06:42.062Z,0.52
2023-02-06T14:09:13.156Z,0.51
2023-02-06T14:12:02.140Z,0.50
2023-02-06T14:14:38.485Z,0.48
2023-02-06T14:17:09.469Z,0.42
2023-02-06T14:20:17.035Z,0.37
2023-02-06T14:22:57.115Z,0.37
2023-02-06T14:26:15.681Z,0.34
2023-02-06T14:29:20.468Z,0.26
2023-02-06T14:32:19.605Z,0.19
2023-02-06T14:35:30.543Z,0.17
2023-02-06T14:38:24.380Z,0.15
2023-02-06T14:40:58.139Z,0.05
2023-02-06T14:43:33.829Z,0.11
2023-02-06T14:46:11.559Z,0.12
2023-02-06T14:48:54.616Z,0.16
2023-02-06T14:51:34.668Z,0.15
2023-02-06T14:54:31.965Z,0.15
2023-02-06T14:57:08.735Z,0.10
2023-02-06T14:59:54.733Z,0.08
2023-02-06T15:02:36.248Z,0.09
2023-02-06T15:05:08.894Z,0.06
2023-02-06T15:07:41.570Z,0.08
2023-02-06T15:10:21.318Z,0.08
2023-02-06T15:12:55.433Z,0.03
2023-02-06T15:15:31.431Z,-0.02
2023-02-06T15:18:09.626Z,-0.06
2023-02-06T15:20:44.398Z,-0.09
2023-02-06T15:23:55.445Z,-0.12
2023-02-06T15:26:59.608Z,-0.09
2023-02-06T15:29:32.220Z,-0.13
2023-02-06T15:32:08.953Z,-0.12
2023-02-06T15:34:41.715Z,-0.14
2023-02-06T15:37:30.817Z,-0.15
2023-02-06T15:40:23.094Z,-0.16
2023-02-06T15:42:55.696Z,-0.19
2023-02-06T15:45:39.242Z,-0.16
2023-02-06T15:48:27.405Z,-0.15
2023-02-06T15:51:32.618Z,-0.12
2023-02-06T15:54:23.954Z,-0.15
2023-02-06T15:57:21.985Z,-0.23
2023-02-06T15:59:56.839Z,-0.29
2023-02-06T16:02:34.300Z,-0.36
2023-02-06T16:05:07.671Z,-0.36
2023-02-06T16:07:41.411Z,-0.31
2023-02-06T16:10:29.208Z,-0.23
2023-02-06T16:13:03.462Z,-0.22
2023-02-06T16:15:40.223Z,-0.22
2023-02-06T16:18:31.874Z,-0.17
2023-02-06T16:21:27.610Z,-0.22
2023-02-06T16:24:08.032Z,-0.24
2023-02-06T16:26:52.501Z,-0.22
2023-02-06T16:29:31.514Z,-0.19
2023-02-06T16:32:14.466Z,-0.22
2023-02-06T16:34:47.689Z,-0.21
2023-02-06T16:37:26.875Z,-0.24
2023-02-06T16:39:59.368Z,-0.19
2023-02-06T16:42:57.277Z,-0.16
2023-02-06T16:45:30.226Z,-0.11
2023-02-06T16:48:03.257Z,-0.09
2023-02-06T16:50:37.277Z,-0.07
2023-02-06T16:53:20.713Z,-0.11
2023-02-06T16:55:53.276Z,-0.15
2023-02-06T16:58:27.586Z,-0.27
2023-02-06T17:01:00.638Z,-0.29
2023-02-06T17:03:33.357Z,-0.38
2023-02-06T17:06:07.540Z,-0.43
2023-02-06T17:08:40.607Z,-0.47
2023-02-06T17:11:13.840Z,-0.43
2023-02-06T17:13:46.562Z,-0.38
2023-02-06T17:16:24.078Z,-0.37
2023-02-06T17:18:56.634Z,-0.40
2023-02-06T17:21:30.908Z,-0.44
2023-02-06T17:24:03.292Z,-0.41
2023-02-06T17:26:35.910Z,-0.36
2023-02-06T17:29:08.679Z,-0.41
2023-02-06T17:31:41.747Z,-0.51
2023-02-06T17:34:14.262Z,-0.58
2023-02-06T17:36:46.899Z,-0.57
2023-02-06T17:39:20.217Z,-0.58
2023-02-06T17:41:52.898Z,-0.67
2023-02-06T17:44:25.641Z,-0.72
2023-02-06T17:46:58.334Z,-0.78
2023-02-06T17:49:31.582Z,-0.79
2023-02-06T17:52:04.640Z,-0.80
2023-02-06T17:54:38.166Z,-0.80
2023-02-06T17:57:11.159Z,-0.79
2023-02-06T17:59:44.584Z,-0.77
2023-02-06T18:02:17.832Z,-0.79
2023-02-06T18:04:54.327Z,-0.86
2023-02-06T18:07:27.801Z,-0.93
2023-02-06T18:10:01.317Z,-0.98
2023-02-06T18:12:34.695Z,-0.98
2023-02-06T18:15:08.571Z,-1.05
2023-02-06T18:17:43.426Z,-1.08
2023-02-06T18:20:17.652Z,-1.13
2023-02-06T18:22:50.846Z,-1.17
2023-02-06T18:25:24.032Z,-1.21
2023-02-06T18:27:56.941Z,-1.24
2023-02-06T18:30:29.725Z,-1.31
2023-02-06T18:33:02.751Z,-1.36
2023-02-06T18:35:41.796Z,-1.43
2023-02-06T18:38:15.331Z,-1.44
2023-02-06T18:40:48.432Z,-1.45
2023-02-06T18:43:21.033Z,-1.46
2023-02-06T18:45:54.070Z,-1.45
2023-02-06T18:48:26.733Z,-1.40
2023-02-06T18:51:01.041Z,-1.41
2023-02-06T18:53:33.662Z,-1.41
2023-02-06T18:56:06.180Z,-1.43
2023-02-06T18:58:39.034Z,-1.40
2023-02-06T19:01:21.892Z,-1.40
2023-02-06T19:04:04.866Z,-1.37
2023-02-06T19:06:39.653Z,-1.37
2023-02-06T19:09:13.524Z,-1.38
2023-02-06T19:11:48.314Z,-1.39
2023-02-06T19:14:23.053Z,-1.37
2023-02-06T19:16:58.573Z,-1.37
2023-02-06T19:19:31.046Z,-1.43
2023-02-06T19:22:03.780Z,-1.54
2023-02-06T19:24:37.069Z,-1.62
2023-02-06T19:27:12.163Z,-1.71
2023-02-06T19:29:45.078Z,-1.80
2023-02-06T19:32:17.550Z,-1.83
2023-02-06T19:34:50.429Z,-1.85
2023-02-06T19:37:23.574Z,-1.91
2023-02-06T19:39:56.339Z,-1.95
2023-02-06T19:42:29.420Z,-1.99
2023-02-06T19:45:01.816Z,-1.98
2023-02-06T19:47:36.794Z,-2.00
2023-02-06T19:50:12.072Z,-2.02
2023-02-06T19:52:45.062Z,-2.03
2023-02-06T19:55:17.799Z,-2.06
2023-02-06T19:57:50.212Z,-2.00
2023-02-06T20:00:22.711Z,-2.00
2023-02-06T20:02:56.486Z,-1.99
2023-02-06T20:05:29.295Z,-1.93
2023-02-06T20:08:03.870Z,-1.86
2023-02-06T20:10:39.611Z,-1.80
2023-02-06T20:13:13.754Z,-1.75
2023-02-06T20:15:46.288Z,-1.72
2023-02-06T20:18:18.775Z,-1.72
2023-02-06T20:20:51.398Z,-1.73
2023-02-06T20:23:24.185Z,-1.71
2023-02-06T20:25:56.774Z,-1.71
2023-02-06T20:28:29.330Z,-1.69
2023-02-06T20:31:03.784Z,-1.66
2023-02-06T20:33:38.297Z,-1.70
2023-02-06T20:36:17.464Z,-1.69
2023-02-06T20:38:58.060Z,-1.65
2023-02-06T20:41:34.528Z,-1.66
2023-02-06T20:44:07.703Z,-1.69
2023-02-06T20:46:40.406Z,-1.69
2023-02-06T20:49:19.298Z,-1.64
2023-02-06T20:51:52.162Z,-1.58
2023-02-06T20:54:25.215Z,-1.53
2023-02-06T20:56:57.834Z,-1.52
2023-02-06T20:59:30.669Z,-1.52
2023-02-06T21:02:03.469Z,-1.55
2023-02-06T21:04:36.613Z,-1.58
2023-02-06T21:07:08.954Z,-1.59
2023-02-06T21:09:41.938Z,-1.54
2023-02-06T21:12:14.657Z,-1.56
2023-02-06T21:14:47.140Z,-1.56
2023-02-06T21:17:20.218Z,-1.58
2023-02-06T21:19:54.302Z,-1.62
2023-02-06T21:22:27.380Z,-1.64
2023-02-06T21:25:00.001Z,-1.62
2023-02-06T21:27:33.157Z,-1.59
2023-02-06T21:30:06.761Z,-1.63
2023-02-06T21:32:39.865Z,-1.63
2023-02-06T21:35:12.946Z,-1.65
2023-02-06T21:37:45.593Z,-1.72
2023-02-06T21:40:18.308Z,-1.76
2023-02-06T21:42:50.835Z,-1.76
2023-02-06T21:45:23.375Z,-1.70
2023-02-06T21:47:56.209Z,-1.65
2023-02-06T21:50:28.711Z,-1.59
2023-02-06T21:53:01.611Z,-1.54
2023-02-06T21:55:35.372Z,-1.51
2023-02-06T21:58:08.816Z,-1.50
2023-02-06T22:00:46.763Z,-1.49
2023-02-06T22:03:19.697Z,-1.51
2023-02-06T22:05:52.557Z,-1.56
2023-02-06T22:08:25.181Z,-1.58
2023-02-06T22:10:58.437Z,-1.61
2023-02-06T22:13:31.510Z,-1.67
2023-02-06T22:16:04.468Z,-1.68
2023-02-06T22:18:37.373Z,-1.65
2023-02-06T22:21:16.657Z,-1.59
2023-02-06T22:23:50.372Z,-1.59
2023-02-06T22:26:23.172Z,-1.62
2023-02-06T22:28:56.272Z,-1.59
2023-02-06T22:31:32.618Z,-1.58
2023-02-06T22:34:05.639Z,-1.61
2023-02-06T22:36:38.616Z,-1.64
2023-02-06T22:39:12.940Z,-1.67
2023-02-06T22:41:45.697Z,-1.69
